sensor_id;sensor_type;location;lat;lon;timestamp;temperature;humidity
9083;DHT22;4577;48.704;9.000;2023-02-28T00:00:20;-0.10;45.20
9083;DHT22;4577;48.704;9.000;2023-02-28T00:02:46;-0.20;45.30
9083;DHT22;4577;48.704;9.000;2023-02-28T00:05:15;-1.00;44.60
9083;DHT22;4577;48.704;9.000;2023-02-28T00:07:41;-0.50;45.00
9083;DHT22;4577;48.704;9.000;2023-02-28T00:10:12;-0.30;45.30
9083;DHT22;4577;48.704;9.000;2023-02-28T00:12:39;-0.30;45.70
9083;DHT22;4577;48.704;9.000;2023-02-28T00:15:09;-0.20;46.00
9083;DHT22;4577;48.704;9.000;2023-02-28T00:17:35;-0.50;45.80
9083;DHT22;4577;48.704;9.000;2023-02-28T00:20:02;-0.30;45.80
9083;DHT22;4577;48.704;9.000;2023-02-28T00:22:45;-0.40;45.90
9083;DHT22;4577;48.704;9.000;2023-02-28T00:25:13;-0.50;45.80
9083;DHT22;4577;48.704;9.000;2023-02-28T00:27:40;-0.30;46.30
9083;DHT22;4577;48.704;9.000;2023-02-28T00:30:08;-0.40;46.30
9083;DHT22;4577;48.704;9.000;2023-02-28T00:32:34;-0.40;46.00
9083;DHT22;4577;48.704;9.000;2023-02-28T00:35:00;-0.40;46.50
9083;DHT22;4577;48.704;9.000;2023-02-28T00:42:18;-0.60;46.60
9083;DHT22;4577;48.704;9.000;2023-02-28T00:44:44;-0.50;46.80
9083;DHT22;4577;48.704;9.000;2023-02-28T00:52:02;-0.50;47.30
9083;DHT22;4577;48.704;9.000;2023-02-28T00:54:28;-0.60;47.30
9083;DHT22;4577;48.704;9.000;2023-02-28T00:56:54;-0.60;47.30
9083;DHT22;4577;48.704;9.000;2023-02-28T00:59:19;-0.60;47.50
9083;DHT22;4577;48.704;9.000;2023-02-28T01:01:46;-0.70;47.60
9083;DHT22;4577;48.704;9.000;2023-02-28T01:04:12;-0.70;47.60
9083;DHT22;4577;48.704;9.000;2023-02-28T01:09:05;-0.60;47.50
9083;DHT22;4577;48.704;9.000;2023-02-28T01:11:32;-0.70;48.00
9083;DHT22;4577;48.704;9.000;2023-02-28T01:13:58;-0.90;47.80
9083;DHT22;4577;48.704;9.000;2023-02-28T01:21:18;-0.80;48.20
9083;DHT22;4577;48.704;9.000;2023-02-28T01:23:44;-0.70;48.60
9083;DHT22;4577;48.704;9.000;2023-02-28T01:26:14;-0.80;48.60
9083;DHT22;4577;48.704;9.000;2023-02-28T01:28:40;-0.50;48.80
9083;DHT22;4577;48.704;9.000;2023-02-28T01:33:32;-0.90;48.70
9083;DHT22;4577;48.704;9.000;2023-02-28T01:36:07;-0.60;48.90
9083;DHT22;4577;48.704;9.000;2023-02-28T01:38:34;-0.70;48.60
9083;DHT22;4577;48.704;9.000;2023-02-28T01:41:00;-0.60;49.20
9083;DHT22;4577;48.704;9.000;2023-02-28T01:43:28;-0.90;49.10
9083;DHT22;4577;48.704;9.000;2023-02-28T01:45:55;-0.80;49.70
9083;DHT22;4577;48.704;9.000;2023-02-28T01:48:25;-0.70;49.80
9083;DHT22;4577;48.704;9.000;2023-02-28T01:50:51;-0.90;50.00
9083;DHT22;4577;48.704;9.000;2023-02-28T01:53:22;-0.90;50.20
9083;DHT22;4577;48.704;9.000;2023-02-28T01:55:52;-1.00;50.20
9083;DHT22;4577;48.704;9.000;2023-02-28T01:58:18;-0.90;50.50
9083;DHT22;4577;48.704;9.000;2023-02-28T02:03:15;-1.00;50.50
9083;DHT22;4577;48.704;9.000;2023-02-28T02:08:17;-0.90;50.70
9083;DHT22;4577;48.704;9.000;2023-02-28T02:10:52;-0.90;51.10
9083;DHT22;4577;48.704;9.000;2023-02-28T02:18:54;-1.00;51.60
9083;DHT22;4577;48.704;9.000;2023-02-28T02:24:44;-1.10;51.70
9083;DHT22;4577;48.704;9.000;2023-02-28T02:27:45;-1.00;51.90
9083;DHT22;4577;48.704;9.000;2023-02-28T02:38:19;-1.30;52.40
9083;DHT22;4577;48.704;9.000;2023-02-28T02:43:21;-1.00;52.70
9083;DHT22;4577;48.704;9.000;2023-02-28T02:45:56;-1.00;52.90
9083;DHT22;4577;48.704;9.000;2023-02-28T02:48:27;-1.10;53.10
9083;DHT22;4577;48.704;9.000;2023-02-28T02:50:57;-0.20;54.40
9083;DHT22;4577;48.704;9.000;2023-02-28T02:53:36;-0.80;53.60
9083;DHT22;4577;48.704;9.000;2023-02-28T02:56:04;-0.90;53.40
9083;DHT22;4577;48.704;9.000;2023-02-28T02:58:34;-1.00;53.50
9083;DHT22;4577;48.704;9.000;2023-02-28T03:01:12;-0.90;53.70
9083;DHT22;4577;48.704;9.000;2023-02-28T03:03:40;-0.80;54.00
9083;DHT22;4577;48.704;9.000;2023-02-28T03:08:36;-0.80;53.80
9083;DHT22;4577;48.704;9.000;2023-02-28T03:11:05;-0.90;54.20
9083;DHT22;4577;48.704;9.000;2023-02-28T03:21:12;-0.80;54.30
9083;DHT22;4577;48.704;9.000;2023-02-28T03:24:10;-0.60;54.60
9083;DHT22;4577;48.704;9.000;2023-02-28T03:26:42;-0.90;54.60
9083;DHT22;4577;48.704;9.000;2023-02-28T03:32:16;-0.90;54.90
9083;DHT22;4577;48.704;9.000;2023-02-28T03:34:55;-0.80;54.90
9083;DHT22;4577;48.704;9.000;2023-02-28T03:37:24;-0.80;55.00
9083;DHT22;4577;48.704;9.000;2023-02-28T03:40:04;-0.80;55.30
9083;DHT22;4577;48.704;9.000;2023-02-28T03:42:35;-0.80;55.20
9083;DHT22;4577;48.704;9.000;2023-02-28T03:45:05;-0.70;55.30
9083;DHT22;4577;48.704;9.000;2023-02-28T03:47:39;-0.80;55.60
9083;DHT22;4577;48.704;9.000;2023-02-28T03:50:42;-0.80;55.30
9083;DHT22;4577;48.704;9.000;2023-02-28T03:56:01;-0.80;55.90
9083;DHT22;4577;48.704;9.000;2023-02-28T04:01:28;-0.90;56.20
9083;DHT22;4577;48.704;9.000;2023-02-28T04:06:22;-1.20;56.80
9083;DHT22;4577;48.704;9.000;2023-02-28T04:08:48;-1.10;56.90
9083;DHT22;4577;48.704;9.000;2023-02-28T04:13:40;-0.90;57.70
9083;DHT22;4577;48.704;9.000;2023-02-28T04:16:09;-0.80;58.00
9083;DHT22;4577;48.704;9.000;2023-02-28T04:18:41;-0.90;57.80
9083;DHT22;4577;48.704;9.000;2023-02-28T04:21:10;-0.90;57.50
9083;DHT22;4577;48.704;9.000;2023-02-28T04:23:36;-0.70;58.50
9083;DHT22;4577;48.704;9.000;2023-02-28T04:26:02;-0.20;58.60
9083;DHT22;4577;48.704;9.000;2023-02-28T04:28:27;-0.80;57.70
9083;DHT22;4577;48.704;9.000;2023-02-28T04:31:01;1.30;59.20
9083;DHT22;4577;48.704;9.000;2023-02-28T04:33:27;0.70;59.10
9083;DHT22;4577;48.704;9.000;2023-02-28T04:36:05;-0.90;58.00
9083;DHT22;4577;48.704;9.000;2023-02-28T04:38:35;-0.80;57.80
9083;DHT22;4577;48.704;9.000;2023-02-28T04:43:28;-0.90;58.20
9083;DHT22;4577;48.704;9.000;2023-02-28T04:45:56;-0.90;58.10
9083;DHT22;4577;48.704;9.000;2023-02-28T04:48:26;-0.60;58.40
9083;DHT22;4577;48.704;9.000;2023-02-28T04:55:45;-0.60;58.70
9083;DHT22;4577;48.704;9.000;2023-02-28T05:00:37;-0.70;58.20
9083;DHT22;4577;48.704;9.000;2023-02-28T05:03:03;-0.80;58.10
9083;DHT22;4577;48.704;9.000;2023-02-28T05:10:22;-0.50;57.90
9083;DHT22;4577;48.704;9.000;2023-02-28T05:12:48;-0.70;58.10
9083;DHT22;4577;48.704;9.000;2023-02-28T05:15:15;-0.80;58.50
9083;DHT22;4577;48.704;9.000;2023-02-28T05:20:09;-0.70;58.80
9083;DHT22;4577;48.704;9.000;2023-02-28T05:22:39;-0.70;58.80
9083;DHT22;4577;48.704;9.000;2023-02-28T05:25:06;-0.70;59.10
9083;DHT22;4577;48.704;9.000;2023-02-28T05:27:32;-0.90;59.20
9083;DHT22;4577;48.704;9.000;2023-02-28T05:39:42;-0.70;59.30
9083;DHT22;4577;48.704;9.000;2023-02-28T05:44:35;-0.60;59.80
9083;DHT22;4577;48.704;9.000;2023-02-28T05:59:12;-0.70;60.20
9083;DHT22;4577;48.704;9.000;2023-02-28T06:01:42;1.90;64.50
9083;DHT22;4577;48.704;9.000;2023-02-28T06:04:14;-0.60;60.90
9083;DHT22;4577;48.704;9.000;2023-02-28T06:06:44;-0.80;60.50
9083;DHT22;4577;48.704;9.000;2023-02-28T06:09:11;-0.60;60.30
9083;DHT22;4577;48.704;9.000;2023-02-28T06:16:30;-0.60;60.90
9083;DHT22;4577;48.704;9.000;2023-02-28T06:19:01;-0.60;61.70
9083;DHT22;4577;48.704;9.000;2023-02-28T06:23:53;-0.50;62.10
9083;DHT22;4577;48.704;9.000;2023-02-28T06:26:20;-0.50;62.10
9083;DHT22;4577;48.704;9.000;2023-02-28T06:28:46;-0.60;62.10
9083;DHT22;4577;48.704;9.000;2023-02-28T06:31:14;-0.60;62.70
9083;DHT22;4577;48.704;9.000;2023-02-28T06:33:41;-0.70;63.10
9083;DHT22;4577;48.704;9.000;2023-02-28T06:36:09;-0.70;64.00
9083;DHT22;4577;48.704;9.000;2023-02-28T06:38:35;-0.60;63.10
9083;DHT22;4577;48.704;9.000;2023-02-28T06:43:29;-0.50;63.40
9083;DHT22;4577;48.704;9.000;2023-02-28T06:45:56;0.10;63.90
9083;DHT22;4577;48.704;9.000;2023-02-28T06:48:23;-0.50;63.50
9083;DHT22;4577;48.704;9.000;2023-02-28T06:53:15;-0.50;63.80
9083;DHT22;4577;48.704;9.000;2023-02-28T06:55:41;-0.50;63.20
9083;DHT22;4577;48.704;9.000;2023-02-28T06:58:07;-0.60;63.20
9083;DHT22;4577;48.704;9.000;2023-02-28T07:00:45;-0.60;63.50
9083;DHT22;4577;48.704;9.000;2023-02-28T07:03:12;-0.50;63.50
9083;DHT22;4577;48.704;9.000;2023-02-28T07:05:39;-0.40;63.10
9083;DHT22;4577;48.704;9.000;2023-02-28T07:08:05;0.20;63.30
9083;DHT22;4577;48.704;9.000;2023-02-28T07:10:32;-0.40;63.00
9083;DHT22;4577;48.704;9.000;2023-02-28T07:12:59;-0.40;62.80
9083;DHT22;4577;48.704;9.000;2023-02-28T07:15:24;-0.60;62.50
9083;DHT22;4577;48.704;9.000;2023-02-28T07:17:50;-0.30;62.70
9083;DHT22;4577;48.704;9.000;2023-02-28T07:22:42;-0.30;62.50
9083;DHT22;4577;48.704;9.000;2023-02-28T07:30:00;0.10;61.10
9083;DHT22;4577;48.704;9.000;2023-02-28T07:34:55;-0.10;60.40
9083;DHT22;4577;48.704;9.000;2023-02-28T07:39:46;-0.10;60.70
9083;DHT22;4577;48.704;9.000;2023-02-28T07:44:40;0.00;59.70
9083;DHT22;4577;48.704;9.000;2023-02-28T07:47:08;0.00;59.20
9083;DHT22;4577;48.704;9.000;2023-02-28T07:49:37;-0.10;59.40
9083;DHT22;4577;48.704;9.000;2023-02-28T07:52:07;0.10;59.50
9083;DHT22;4577;48.704;9.000;2023-02-28T08:01:51;0.10;58.20
9083;DHT22;4577;48.704;9.000;2023-02-28T08:04:17;0.20;57.90
9083;DHT22;4577;48.704;9.000;2023-02-28T08:06:43;0.20;58.00
9083;DHT22;4577;48.704;9.000;2023-02-28T08:21:20;0.30;56.80
9083;DHT22;4577;48.704;9.000;2023-02-28T08:23:48;0.30;56.60
9083;DHT22;4577;48.704;9.000;2023-02-28T08:26:15;0.40;57.50
9083;DHT22;4577;48.704;9.000;2023-02-28T08:28:41;0.40;57.00
9083;DHT22;4577;48.704;9.000;2023-02-28T08:31:09;0.40;56.30
9083;DHT22;4577;48.704;9.000;2023-02-28T08:33:35;0.40;56.80
9083;DHT22;4577;48.704;9.000;2023-02-28T08:36:01;0.10;56.30
9083;DHT22;4577;48.704;9.000;2023-02-28T08:41:00;0.30;56.10
9083;DHT22;4577;48.704;9.000;2023-02-28T08:43:27;0.50;56.50
9083;DHT22;4577;48.704;9.000;2023-02-28T08:45:54;0.40;56.20
9083;DHT22;4577;48.704;9.000;2023-02-28T08:48:22;0.40;55.80
9083;DHT22;4577;48.704;9.000;2023-02-28T08:50:59;0.50;55.80
9083;DHT22;4577;48.704;9.000;2023-02-28T08:53:25;0.50;55.60
9083;DHT22;4577;48.704;9.000;2023-02-28T08:55:59;0.20;55.60
9083;DHT22;4577;48.704;9.000;2023-02-28T08:58:25;0.10;55.60
9083;DHT22;4577;48.704;9.000;2023-02-28T09:00:52;0.50;56.10
9083;DHT22;4577;48.704;9.000;2023-02-28T09:06:04;0.50;55.60
9083;DHT22;4577;48.704;9.000;2023-02-28T09:08:30;0.40;55.50
9083;DHT22;4577;48.704;9.000;2023-02-28T09:10:57;0.60;56.00
9083;DHT22;4577;48.704;9.000;2023-02-28T09:13:24;0.60;55.60
9083;DHT22;4577;48.704;9.000;2023-02-28T09:15:52;0.40;55.20
9083;DHT22;4577;48.704;9.000;2023-02-28T09:18:17;0.30;55.30
9083;DHT22;4577;48.704;9.000;2023-02-28T09:20:43;0.40;55.20
9083;DHT22;4577;48.704;9.000;2023-02-28T09:23:11;0.60;55.50
9083;DHT22;4577;48.704;9.000;2023-02-28T09:25:45;0.50;55.30
9083;DHT22;4577;48.704;9.000;2023-02-28T09:28:11;0.70;55.50
9083;DHT22;4577;48.704;9.000;2023-02-28T09:30:37;0.60;55.30
9083;DHT22;4577;48.704;9.000;2023-02-28T09:33:03;0.80;54.90
9083;DHT22;4577;48.704;9.000;2023-02-28T09:37:56;0.90;55.20
9083;DHT22;4577;48.704;9.000;2023-02-28T09:40:25;0.90;55.00
9083;DHT22;4577;48.704;9.000;2023-02-28T09:42:54;0.70;54.70
9083;DHT22;4577;48.704;9.000;2023-02-28T09:45:35;0.80;54.80
9083;DHT22;4577;48.704;9.000;2023-02-28T09:48:07;0.90;54.70
9083;DHT22;4577;48.704;9.000;2023-02-28T09:50:40;0.90;54.70
9083;DHT22;4577;48.704;9.000;2023-02-28T09:53:30;0.80;54.20
9083;DHT22;4577;48.704;9.000;2023-02-28T09:56:11;0.80;54.30
9083;DHT22;4577;48.704;9.000;2023-02-28T10:06:10;1.30;53.70
9083;DHT22;4577;48.704;9.000;2023-02-28T10:08:43;1.20;53.40
9083;DHT22;4577;48.704;9.000;2023-02-28T10:11:14;1.30;53.60
9083;DHT22;4577;48.704;9.000;2023-02-28T10:14:00;1.30;53.40
9083;DHT22;4577;48.704;9.000;2023-02-28T10:22:24;1.20;53.30
9083;DHT22;4577;48.704;9.000;2023-02-28T10:24:53;1.30;53.20
9083;DHT22;4577;48.704;9.000;2023-02-28T10:27:22;1.00;52.80
9083;DHT22;4577;48.704;9.000;2023-02-28T10:29:56;1.40;52.90
9083;DHT22;4577;48.704;9.000;2023-02-28T10:32:27;1.50;52.80
9083;DHT22;4577;48.704;9.000;2023-02-28T10:35:17;1.60;52.10
9083;DHT22;4577;48.704;9.000;2023-02-28T10:37:47;1.70;51.90
9083;DHT22;4577;48.704;9.000;2023-02-28T10:43:12;1.80;51.90
9083;DHT22;4577;48.704;9.000;2023-02-28T10:46:10;2.00;51.80
9083;DHT22;4577;48.704;9.000;2023-02-28T10:48:41;2.00;51.30
9083;DHT22;4577;48.704;9.000;2023-02-28T10:51:11;1.90;51.10
9083;DHT22;4577;48.704;9.000;2023-02-28T10:53:55;2.20;51.40
9083;DHT22;4577;48.704;9.000;2023-02-28T10:56:23;2.20;50.70
9083;DHT22;4577;48.704;9.000;2023-02-28T10:59:20;2.30;50.80
9083;DHT22;4577;48.704;9.000;2023-02-28T11:01:47;2.50;50.20
9083;DHT22;4577;48.704;9.000;2023-02-28T11:06:45;2.80;50.80
9083;DHT22;4577;48.704;9.000;2023-02-28T11:09:27;2.80;50.50
9083;DHT22;4577;48.704;9.000;2023-02-28T11:11:55;3.00;49.30
9083;DHT22;4577;48.704;9.000;2023-02-28T11:14:25;2.90;49.00
9083;DHT22;4577;48.704;9.000;2023-02-28T11:16:53;3.00;49.70
9083;DHT22;4577;48.704;9.000;2023-02-28T11:19:29;2.90;49.60
9083;DHT22;4577;48.704;9.000;2023-02-28T11:22:03;2.80;48.80
9083;DHT22;4577;48.704;9.000;2023-02-28T11:24:40;2.80;49.30
9083;DHT22;4577;48.704;9.000;2023-02-28T11:27:11;3.00;49.40
9083;DHT22;4577;48.704;9.000;2023-02-28T11:29:49;3.00;49.20
9083;DHT22;4577;48.704;9.000;2023-02-28T11:32:22;3.00;48.90
9083;DHT22;4577;48.704;9.000;2023-02-28T11:35:14;2.90;49.30
9083;DHT22;4577;48.704;9.000;2023-02-28T11:40:15;2.90;49.00
9083;DHT22;4577;48.704;9.000;2023-02-28T11:42:53;3.00;49.40
9083;DHT22;4577;48.704;9.000;2023-02-28T11:56:55;2.80;48.50
9083;DHT22;4577;48.704;9.000;2023-02-28T12:02:25;2.90;49.00
9083;DHT22;4577;48.704;9.000;2023-02-28T12:28:50;3.30;49.60
9083;DHT22;4577;48.704;9.000;2023-02-28T12:31:21;3.50;49.80
9083;DHT22;4577;48.704;9.000;2023-02-28T12:33:53;3.60;49.50
9083;DHT22;4577;48.704;9.000;2023-02-28T12:36:21;3.80;49.30
9083;DHT22;4577;48.704;9.000;2023-02-28T12:41:20;4.10;48.00
9083;DHT22;4577;48.704;9.000;2023-02-28T12:46:54;4.10;46.60
9083;DHT22;4577;48.704;9.000;2023-02-28T12:49:30;4.20;46.70
9083;DHT22;4577;48.704;9.000;2023-02-28T12:51:58;4.00;47.10
9083;DHT22;4577;48.704;9.000;2023-02-28T12:54:36;4.10;47.30
9083;DHT22;4577;48.704;9.000;2023-02-28T12:57:09;4.40;47.30
9083;DHT22;4577;48.704;9.000;2023-02-28T12:59:50;3.90;46.80
9083;DHT22;4577;48.704;9.000;2023-02-28T13:08:18;4.00;46.40
9083;DHT22;4577;48.704;9.000;2023-02-28T13:10:48;4.20;47.10
9083;DHT22;4577;48.704;9.000;2023-02-28T13:13:24;4.30;46.60
9083;DHT22;4577;48.704;9.000;2023-02-28T13:16:05;4.40;46.80
9083;DHT22;4577;48.704;9.000;2023-02-28T13:18:40;4.40;46.40
9083;DHT22;4577;48.704;9.000;2023-02-28T13:21:24;4.70;45.30
9083;DHT22;4577;48.704;9.000;2023-02-28T13:29:24;4.80;44.80
9083;DHT22;4577;48.704;9.000;2023-02-28T13:35:34;4.90;45.20
9083;DHT22;4577;48.704;9.000;2023-02-28T13:39:57;5.00;44.50
9083;DHT22;4577;48.704;9.000;2023-02-28T13:47:43;5.50;44.30
9083;DHT22;4577;48.704;9.000;2023-02-28T13:53:03;5.50;43.20
9083;DHT22;4577;48.704;9.000;2023-02-28T14:03:24;5.90;43.30
9083;DHT22;4577;48.704;9.000;2023-02-28T14:17:16;6.10;43.00
9083;DHT22;4577;48.704;9.000;2023-02-28T14:19:45;6.10;43.20
9083;DHT22;4577;48.704;9.000;2023-02-28T14:22:43;6.20;42.70
9083;DHT22;4577;48.704;9.000;2023-02-28T14:25:22;6.10;42.00
9083;DHT22;4577;48.704;9.000;2023-02-28T14:30:43;6.10;42.10
9083;DHT22;4577;48.704;9.000;2023-02-28T14:38:50;6.40;42.20
9083;DHT22;4577;48.704;9.000;2023-02-28T14:44:00;6.40;41.80
9083;DHT22;4577;48.704;9.000;2023-02-28T14:46:35;6.30;41.60
9083;DHT22;4577;48.704;9.000;2023-02-28T14:49:04;6.10;41.80
9083;DHT22;4577;48.704;9.000;2023-02-28T14:54:01;6.10;41.80
9083;DHT22;4577;48.704;9.000;2023-02-28T14:56:36;5.90;41.60
9083;DHT22;4577;48.704;9.000;2023-02-28T14:59:03;6.00;41.80
9083;DHT22;4577;48.704;9.000;2023-02-28T15:04:06;6.20;41.80
9083;DHT22;4577;48.704;9.000;2023-02-28T15:06:40;6.20;41.90
9083;DHT22;4577;48.704;9.000;2023-02-28T15:09:25;6.30;41.60
9083;DHT22;4577;48.704;9.000;2023-02-28T15:14:19;6.30;41.60
9083;DHT22;4577;48.704;9.000;2023-02-28T15:17:06;6.30;41.40
9083;DHT22;4577;48.704;9.000;2023-02-28T15:19:36;6.30;41.40
9083;DHT22;4577;48.704;9.000;2023-02-28T15:22:11;6.20;41.00
9083;DHT22;4577;48.704;9.000;2023-02-28T15:24:41;6.20;41.30
9083;DHT22;4577;48.704;9.000;2023-02-28T15:27:15;6.20;41.40
9083;DHT22;4577;48.704;9.000;2023-02-28T15:29:48;6.30;41.60
9083;DHT22;4577;48.704;9.000;2023-02-28T15:32:37;6.50;41.50
9083;DHT22;4577;48.704;9.000;2023-02-28T15:50:54;6.50;41.10
9083;DHT22;4577;48.704;9.000;2023-02-28T15:53:27;6.40;41.00
9083;DHT22;4577;48.704;9.000;2023-02-28T15:56:04;6.10;41.30
9083;DHT22;4577;48.704;9.000;2023-02-28T15:58:30;6.40;41.50
9083;DHT22;4577;48.704;9.000;2023-02-28T16:01:19;6.20;41.30
9083;DHT22;4577;48.704;9.000;2023-02-28T16:03:50;6.20;41.30
9083;DHT22;4577;48.704;9.000;2023-02-28T16:08:44;6.20;41.40
9083;DHT22;4577;48.704;9.000;2023-02-28T16:11:10;6.20;41.30
9083;DHT22;4577;48.704;9.000;2023-02-28T16:13:36;6.10;41.30
9083;DHT22;4577;48.704;9.000;2023-02-28T16:16:02;6.10;41.60
9083;DHT22;4577;48.704;9.000;2023-02-28T16:28:24;6.10;42.00
9083;DHT22;4577;48.704;9.000;2023-02-28T16:30:53;6.10;42.40
9083;DHT22;4577;48.704;9.000;2023-02-28T16:33:19;5.80;42.10
9083;DHT22;4577;48.704;9.000;2023-02-28T16:35:45;5.90;42.40
9083;DHT22;4577;48.704;9.000;2023-02-28T16:40:37;5.80;42.50
9083;DHT22;4577;48.704;9.000;2023-02-28T16:43:18;5.70;43.10
9083;DHT22;4577;48.704;9.000;2023-02-28T16:45:45;5.60;42.90
9083;DHT22;4577;48.704;9.000;2023-02-28T16:48:13;5.20;43.20
9083;DHT22;4577;48.704;9.000;2023-02-28T16:55:31;5.20;44.10
9083;DHT22;4577;48.704;9.000;2023-02-28T16:57:59;5.20;44.20
9083;DHT22;4577;48.704;9.000;2023-02-28T17:00:26;5.00;44.10
9083;DHT22;4577;48.704;9.000;2023-02-28T17:07:46;5.00;44.10
9083;DHT22;4577;48.704;9.000;2023-02-28T17:10:26;4.80;44.40
9083;DHT22;4577;48.704;9.000;2023-02-28T17:15:19;4.70;44.90
9083;DHT22;4577;48.704;9.000;2023-02-28T17:17:45;4.60;45.00
9083;DHT22;4577;48.704;9.000;2023-02-28T17:20:16;4.50;45.30
9083;DHT22;4577;48.704;9.000;2023-02-28T17:22:42;4.60;45.30
9083;DHT22;4577;48.704;9.000;2023-02-28T17:25:10;4.40;45.30
9083;DHT22;4577;48.704;9.000;2023-02-28T17:27:36;4.50;45.80
9083;DHT22;4577;48.704;9.000;2023-02-28T17:30:24;4.40;45.70
9083;DHT22;4577;48.704;9.000;2023-02-28T17:32:49;4.30;45.80
9083;DHT22;4577;48.704;9.000;2023-02-28T17:37:41;4.30;46.00
9083;DHT22;4577;48.704;9.000;2023-02-28T17:40:14;4.30;46.10
9083;DHT22;4577;48.704;9.000;2023-02-28T17:45:06;4.00;46.20
9083;DHT22;4577;48.704;9.000;2023-02-28T17:49:58;4.40;46.60
9083;DHT22;4577;48.704;9.000;2023-02-28T17:57:15;4.00;46.70
9083;DHT22;4577;48.704;9.000;2023-02-28T17:59:43;4.00;46.80
9083;DHT22;4577;48.704;9.000;2023-02-28T18:02:12;4.00;46.70
9083;DHT22;4577;48.704;9.000;2023-02-28T18:04:38;4.10;47.00
9083;DHT22;4577;48.704;9.000;2023-02-28T18:07:05;4.00;46.70
9083;DHT22;4577;48.704;9.000;2023-02-28T18:09:31;4.00;47.00
9083;DHT22;4577;48.704;9.000;2023-02-28T18:11:57;4.00;47.00
9083;DHT22;4577;48.704;9.000;2023-02-28T18:14:24;4.10;47.00
9083;DHT22;4577;48.704;9.000;2023-02-28T18:16:52;4.00;46.80
9083;DHT22;4577;48.704;9.000;2023-02-28T18:19:18;4.00;47.00
9083;DHT22;4577;48.704;9.000;2023-02-28T18:21:47;4.30;47.50
9083;DHT22;4577;48.704;9.000;2023-02-28T18:24:14;4.00;47.10
9083;DHT22;4577;48.704;9.000;2023-02-28T18:29:07;3.70;47.20
9083;DHT22;4577;48.704;9.000;2023-02-28T18:31:34;3.80;47.60
9083;DHT22;4577;48.704;9.000;2023-02-28T18:34:00;3.40;47.40
9083;DHT22;4577;48.704;9.000;2023-02-28T18:36:27;3.70;47.60
9083;DHT22;4577;48.704;9.000;2023-02-28T18:41:20;3.70;47.70
9083;DHT22;4577;48.704;9.000;2023-02-28T18:43:47;3.60;47.90
9083;DHT22;4577;48.704;9.000;2023-02-28T18:46:16;3.60;48.20
9083;DHT22;4577;48.704;9.000;2023-02-28T18:48:42;3.50;48.30
9083;DHT22;4577;48.704;9.000;2023-02-28T18:51:13;3.70;48.70
9083;DHT22;4577;48.704;9.000;2023-02-28T18:53:40;3.50;48.20
9083;DHT22;4577;48.704;9.000;2023-02-28T18:56:07;3.20;48.40
9083;DHT22;4577;48.704;9.000;2023-02-28T18:58:33;3.40;48.50
9083;DHT22;4577;48.704;9.000;2023-02-28T19:01:00;3.40;48.80
9083;DHT22;4577;48.704;9.000;2023-02-28T19:05:59;3.40;48.60
9083;DHT22;4577;48.704;9.000;2023-02-28T19:08:28;3.30;49.00
9083;DHT22;4577;48.704;9.000;2023-02-28T19:10:54;3.30;48.90
9083;DHT22;4577;48.704;9.000;2023-02-28T19:15:46;3.30;48.80
9083;DHT22;4577;48.704;9.000;2023-02-28T19:18:12;3.20;49.50
9083;DHT22;4577;48.704;9.000;2023-02-28T19:20:38;3.10;50.00
9083;DHT22;4577;48.704;9.000;2023-02-28T19:23:04;3.20;49.90
9083;DHT22;4577;48.704;9.000;2023-02-28T19:30:22;3.20;49.60
9083;DHT22;4577;48.704;9.000;2023-02-28T19:32:48;2.90;49.40
9083;DHT22;4577;48.704;9.000;2023-02-28T19:35:15;3.00;49.50
9083;DHT22;4577;48.704;9.000;2023-02-28T19:37:41;4.70;51.10
9083;DHT22;4577;48.704;9.000;2023-02-28T19:40:09;2.80;49.70
9083;DHT22;4577;48.704;9.000;2023-02-28T19:45:02;3.00;49.90
9083;DHT22;4577;48.704;9.000;2023-02-28T19:49:55;2.80;49.80
9083;DHT22;4577;48.704;9.000;2023-02-28T19:52:22;2.80;49.90
9083;DHT22;4577;48.704;9.000;2023-02-28T19:54:49;2.70;50.10
9083;DHT22;4577;48.704;9.000;2023-02-28T19:57:15;2.70;50.10
9083;DHT22;4577;48.704;9.000;2023-02-28T20:02:15;2.80;50.20
9083;DHT22;4577;48.704;9.000;2023-02-28T20:04:41;3.20;50.40
9083;DHT22;4577;48.704;9.000;2023-02-28T20:09:33;2.70;50.40
9083;DHT22;4577;48.704;9.000;2023-02-28T20:14:26;2.80;51.00
9083;DHT22;4577;48.704;9.000;2023-02-28T20:24:10;2.80;50.60
9083;DHT22;4577;48.704;9.000;2023-02-28T20:26:37;2.60;50.70
9083;DHT22;4577;48.704;9.000;2023-02-28T20:29:04;2.30;50.70
9083;DHT22;4577;48.704;9.000;2023-02-28T20:33:57;2.50;50.70
9083;DHT22;4577;48.704;9.000;2023-02-28T20:38:50;2.50;51.10
9083;DHT22;4577;48.704;9.000;2023-02-28T20:41:16;2.40;51.20
9083;DHT22;4577;48.704;9.000;2023-02-28T20:43:42;2.30;51.10
9083;DHT22;4577;48.704;9.000;2023-02-28T20:46:08;2.30;51.30
9083;DHT22;4577;48.704;9.000;2023-02-28T20:51:01;2.40;51.40
9083;DHT22;4577;48.704;9.000;2023-02-28T20:53:31;2.40;51.40
9083;DHT22;4577;48.704;9.000;2023-02-28T20:56:05;2.40;51.70
9083;DHT22;4577;48.704;9.000;2023-02-28T20:58:34;2.20;51.20
9083;DHT22;4577;48.704;9.000;2023-02-28T21:01:08;2.50;51.70
9083;DHT22;4577;48.704;9.000;2023-02-28T21:03:45;2.30;51.40
9083;DHT22;4577;48.704;9.000;2023-02-28T21:06:12;2.30;51.50
9083;DHT22;4577;48.704;9.000;2023-02-28T21:08:38;2.40;51.60
9083;DHT22;4577;48.704;9.000;2023-02-28T21:11:26;2.30;51.60
9083;DHT22;4577;48.704;9.000;2023-02-28T21:13:52;2.10;51.60
9083;DHT22;4577;48.704;9.000;2023-02-28T21:16:21;1.90;51.90
9083;DHT22;4577;48.704;9.000;2023-02-28T21:18:47;2.10;52.00
9083;DHT22;4577;48.704;9.000;2023-02-28T21:21:16;2.10;51.80
9083;DHT22;4577;48.704;9.000;2023-02-28T21:23:43;2.10;51.90
9083;DHT22;4577;48.704;9.000;2023-02-28T21:26:14;2.00;52.10
9083;DHT22;4577;48.704;9.000;2023-02-28T21:28:41;2.00;52.20
9083;DHT22;4577;48.704;9.000;2023-02-28T21:31:11;2.00;52.30
9083;DHT22;4577;48.704;9.000;2023-02-28T21:33:37;2.00;52.20
9083;DHT22;4577;48.704;9.000;2023-02-28T21:36:06;2.00;52.30
9083;DHT22;4577;48.704;9.000;2023-02-28T21:38:33;2.00;52.40
9083;DHT22;4577;48.704;9.000;2023-02-28T21:41:11;2.10;52.20
9083;DHT22;4577;48.704;9.000;2023-02-28T21:43:38;2.10;52.70
9083;DHT22;4577;48.704;9.000;2023-02-28T21:46:07;2.10;52.60
9083;DHT22;4577;48.704;9.000;2023-02-28T21:51:01;2.00;52.00
9083;DHT22;4577;48.704;9.000;2023-02-28T21:53:28;1.80;52.10
9083;DHT22;4577;48.704;9.000;2023-02-28T22:00:46;2.00;52.00
9083;DHT22;4577;48.704;9.000;2023-02-28T22:03:12;2.00;52.20
9083;DHT22;4577;48.704;9.000;2023-02-28T22:05:38;2.00;52.30
9083;DHT22;4577;48.704;9.000;2023-02-28T22:08:04;1.90;52.20
9083;DHT22;4577;48.704;9.000;2023-02-28T22:12:55;1.90;52.40
9083;DHT22;4577;48.704;9.000;2023-02-28T22:15:26;1.90;52.40
9083;DHT22;4577;48.704;9.000;2023-02-28T22:20:18;1.80;52.40
9083;DHT22;4577;48.704;9.000;2023-02-28T22:22:43;1.80;52.40
9083;DHT22;4577;48.704;9.000;2023-02-28T22:25:09;1.70;52.60
9083;DHT22;4577;48.704;9.000;2023-02-28T22:27:35;1.90;53.00
9083;DHT22;4577;48.704;9.000;2023-02-28T22:30:00;1.70;52.70
9083;DHT22;4577;48.704;9.000;2023-02-28T22:32:26;1.80;52.80
9083;DHT22;4577;48.704;9.000;2023-02-28T22:37:17;1.80;53.10
9083;DHT22;4577;48.704;9.000;2023-02-28T22:39:43;1.70;53.10
9083;DHT22;4577;48.704;9.000;2023-02-28T22:42:09;1.60;52.90
9083;DHT22;4577;48.704;9.000;2023-02-28T22:47:01;1.60;53.00
9083;DHT22;4577;48.704;9.000;2023-02-28T22:49:27;1.70;53.10
9083;DHT22;4577;48.704;9.000;2023-02-28T22:51:52;1.30;52.60
9083;DHT22;4577;48.704;9.000;2023-02-28T22:54:18;1.60;53.10
9083;DHT22;4577;48.704;9.000;2023-02-28T22:59:13;1.60;53.40
9083;DHT22;4577;48.704;9.000;2023-02-28T23:01:40;1.50;53.40
9083;DHT22;4577;48.704;9.000;2023-02-28T23:04:09;1.50;53.50
9083;DHT22;4577;48.704;9.000;2023-02-28T23:06:36;1.50;53.50
9083;DHT22;4577;48.704;9.000;2023-02-28T23:09:09;1.10;53.30
9083;DHT22;4577;48.704;9.000;2023-02-28T23:11:40;1.50;53.70
9083;DHT22;4577;48.704;9.000;2023-02-28T23:14:06;1.30;53.50